Time;durP1;ratioP1;P1;durP2;ratioP2;P2;SDS_P1;SDS_P2;PMS_P1;PMS_P2;Temp;Humidity;BMP_temperature;BMP_pressure;BME280_temperature;BME280_humidity;BME280_pressure;Samples;Min_cycle;Max_cycle;Signal;HPM_P1;HPM_P2
2022/01/31 00:00:39;;;;;;;;;;;;;;;5.16;44.13;96463.66;5064947;28;19924;-60
2022/01/31 00:03:05;;;;;;;;;;;;;;;5.15;44.10;96462.06;5064611;28;19928;-64
2022/01/31 00:05:32;;;;;;;;;;;;;;;5.13;44.32;96458.84;5063335;28;19966;-64
2022/01/31 00:07:59;;;;;;;;;;;;;;;5.17;44.32;96454.28;5064608;28;19925;-64
2022/01/31 00:10:30;;;;;;;;;;;;;;;5.16;44.46;96458.16;5063581;28;19925;-63
2022/01/31 00:13:05;;;;;;;;;;;;;;;5.11;44.61;96477.63;5064567;28;19929;-58
2022/01/31 00:15:37;;;;;;;;;;;;;;;5.01;44.88;96451.47;5063246;28;19924;-64
2022/01/31 00:18:03;;;;;;;;;;;;;;;5.13;44.19;96458.84;5064191;28;19931;-61
2022/01/31 00:20:30;;;;;;;;;;;;;;;5.10;44.63;96454.06;5064401;28;19924;-59
2022/01/31 00:22:57;;;;;;;;;;;;;;;5.01;45.45;96445.19;5064329;28;19935;-63
2022/01/31 00:25:23;;;;;;;;;;;;;;;4.99;46.13;96445.56;5064747;28;19924;-59
2022/01/31 00:27:50;;;;;;;;;;;;;;;4.90;44.91;96441.34;5064587;28;20014;-60
2022/01/31 00:30:17;;;;;;;;;;;;;;;4.96;45.12;96442.69;5064488;28;19924;-64
2022/01/31 00:32:43;;;;;;;;;;;;;;;4.89;45.80;96448.78;5062430;28;19934;-63
2022/01/31 00:35:10;;;;;;;;;;;;;;;4.85;46.06;96456.13;5063856;28;20395;-61
2022/01/31 00:37:37;;;;;;;;;;;;;;;4.33;46.36;96376.59;5063914;28;19947;-58
2022/01/31 00:40:05;;;;;;;;;;;;;;;4.73;46.06;96438.91;5062372;28;19924;-58
2022/01/31 00:42:32;;;;;;;;;;;;;;;4.81;45.22;96446.16;5063854;28;20023;-64
2022/01/31 00:45:11;;;;;;;;;;;;;;;4.82;45.11;96456.00;5064339;28;19924;-64
2022/01/31 00:47:41;;;;;;;;;;;;;;;4.86;44.98;96470.63;5063703;28;20255;-64
2022/01/31 00:50:10;;;;;;;;;;;;;;;4.94;45.36;96464.19;5064040;28;19924;-57
2022/01/31 00:52:37;;;;;;;;;;;;;;;4.90;45.74;96471.53;5063397;28;19932;-59
2022/01/31 00:55:05;;;;;;;;;;;;;;;4.90;45.38;96477.81;5063947;28;20389;-58
2022/01/31 00:57:31;;;;;;;;;;;;;;;4.88;45.68;96440.91;5063438;28;20324;-64
2022/01/31 00:59:58;;;;;;;;;;;;;;;4.80;45.96;96450.06;5062042;28;20323;-64
2022/01/31 01:02:25;;;;;;;;;;;;;;;4.87;46.34;96461.25;5063605;28;20386;-64
2022/01/31 01:04:52;;;;;;;;;;;;;;;4.92;45.55;96459.06;5063894;28;19931;-64
2022/01/31 01:07:22;;;;;;;;;;;;;;;4.98;45.81;96462.38;5062301;28;19942;-63
2022/01/31 01:09:49;;;;;;;;;;;;;;;4.96;45.35;96475.63;5063941;28;20217;-64
2022/01/31 01:12:17;;;;;;;;;;;;;;;4.93;45.75;96476.31;5063470;28;19935;-64
2022/01/31 01:14:45;;;;;;;;;;;;;;;4.85;46.65;96469.03;5061734;28;20000;-58
2022/01/31 01:17:11;;;;;;;;;;;;;;;4.83;46.30;96468.56;5062182;28;19931;-59
2022/01/31 01:19:38;;;;;;;;;;;;;;;4.72;47.07;96481.16;5063554;28;19924;-58
2022/01/31 01:22:04;;;;;;;;;;;;;;;4.57;47.46;96469.78;5064106;28;19931;-59
2022/01/31 01:24:31;;;;;;;;;;;;;;;4.55;47.53;96477.53;5063889;28;19924;-64
2022/01/31 01:26:57;;;;;;;;;;;;;;;4.55;47.66;96472.06;5063773;28;19924;-58
2022/01/31 01:29:24;;;;;;;;;;;;;;;4.43;47.74;96485.78;5063311;28;19924;-65
2022/01/31 01:31:51;;;;;;;;;;;;;;;4.48;47.61;96476.53;5063399;28;19924;-63
2022/01/31 01:34:20;;;;;;;;;;;;;;;4.42;47.87;96475.97;5063461;28;20299;-64
2022/01/31 01:36:50;;;;;;;;;;;;;;;4.45;47.19;96471.75;5064064;28;19924;-59
2022/01/31 01:39:16;;;;;;;;;;;;;;;4.52;46.35;96466.50;5062358;28;19924;-63
2022/01/31 01:41:43;;;;;;;;;;;;;;;4.56;46.58;96473.66;5062088;28;19947;-57
2022/01/31 01:44:10;;;;;;;;;;;;;;;4.55;46.79;96474.03;5063371;28;19932;-62
2022/01/31 01:46:37;;;;;;;;;;;;;;;4.40;47.61;96464.56;5063596;28;19943;-60
2022/01/31 01:49:04;;;;;;;;;;;;;;;4.38;47.40;96466.84;5061959;28;19924;-58
2022/01/31 01:51:30;;;;;;;;;;;;;;;3.93;48.94;96482.63;5062108;28;19924;-58
2022/01/31 01:54:00;;;;;;;;;;;;;;;3.84;49.60;96476.41;5063427;28;19931;-62
2022/01/31 01:56:28;;;;;;;;;;;;;;;3.71;48.75;96468.53;5063720;28;19924;-62
2022/01/31 01:58:54;;;;;;;;;;;;;;;3.66;49.62;96466.84;5061726;28;19955;-62
2022/01/31 02:01:21;;;;;;;;;;;;;;;3.66;49.99;96464.09;5021605;28;19924;-58
2022/01/31 02:03:48;;;;;;;;;;;;;;;3.59;50.21;96457.59;5062015;28;20486;-57
2022/01/31 02:06:15;;;;;;;;;;;;;;;3.48;50.87;96454.47;5062932;28;20416;-61
2022/01/31 02:08:43;;;;;;;;;;;;;;;3.55;50.21;96464.84;5061770;28;19931;-60
2022/01/31 02:11:11;;;;;;;;;;;;;;;3.53;50.36;96461.66;5066612;28;19924;-57
2022/01/31 02:13:38;;;;;;;;;;;;;;;3.58;49.39;96465.00;5086775;28;19924;-63
2022/01/31 02:16:05;;;;;;;;;;;;;;;3.70;49.36;96470.47;5086927;28;19924;-64
2022/01/31 02:18:32;;;;;;;;;;;;;;;3.65;50.58;96465.22;5086737;28;19930;-58
2022/01/31 02:20:59;;;;;;;;;;;;;;;3.52;50.89;96471.81;5087247;28;20379;-58
2022/01/31 02:23:27;;;;;;;;;;;;;;;3.52;50.01;96477.31;5086401;28;19928;-62
2022/01/31 02:26:01;;;;;;;;;;;;;;;3.50;50.50;96479.56;5086817;28;19924;-63
2022/01/31 02:28:29;;;;;;;;;;;;;;;3.34;51.00;96484.09;5085448;28;19931;-58
2022/01/31 02:30:56;;;;;;;;;;;;;;;1.04;51.30;96115.44;5086580;28;19928;-62
2022/01/31 02:33:23;;;;;;;;;;;;;;;3.44;51.20;96467.25;5084789;28;19930;-58
2022/01/31 02:35:52;;;;;;;;;;;;;;;3.34;51.18;96486.81;5086691;28;19924;-63
2022/01/31 02:38:19;;;;;;;;;;;;;;;3.26;51.50;96490.44;5086702;28;19947;-62
2022/01/31 02:40:46;;;;;;;;;;;;;;;3.24;52.28;96492.72;5086554;28;19935;-59
2022/01/31 02:43:18;;;;;;;;;;;;;;;3.22;52.59;96505.13;5086919;28;19924;-62
2022/01/31 02:45:44;;;;;;;;;;;;;;;3.09;52.92;96479.66;5085144;28;19923;-64
2022/01/31 02:48:13;;;;;;;;;;;;;;;2.93;54.24;96481.41;5086250;28;19951;-62
2022/01/31 02:50:40;;;;;;;;;;;;;;;2.98;53.71;96489.44;5085792;28;19930;-64
2022/01/31 02:53:21;;;;;;;;;;;;;;;2.97;53.71;96487.84;5086374;28;20377;-62
2022/01/31 02:55:48;;;;;;;;;;;;;;;2.97;53.21;96496.03;5086168;28;19924;-62
2022/01/31 02:58:15;;;;;;;;;;;;;;;3.04;52.53;96499.03;5085864;28;19924;-63
2022/01/31 03:00:42;;;;;;;;;;;;;;;2.96;53.66;96497.16;5085605;28;20536;-58
2022/01/31 03:03:09;;;;;;;;;;;;;;;2.95;53.19;96511.97;5085941;28;19968;-59
2022/01/31 03:05:36;;;;;;;;;;;;;;;2.91;54.11;96497.34;5086077;28;19928;-63
2022/01/31 03:08:03;;;;;;;;;;;;;;;2.79;54.78;96505.50;5085798;28;20010;-57
2022/01/31 03:10:30;;;;;;;;;;;;;;;2.68;55.45;96493.38;5085791;28;19924;-58
2022/01/31 03:12:56;;;;;;;;;;;;;;;2.70;55.04;96499.31;5080737;28;19936;-62
2022/01/31 03:15:23;;;;;;;;;;;;;;;2.63;55.19;96499.84;5063930;28;20368;-63
2022/01/31 03:17:51;;;;;;;;;;;;;;;2.66;55.06;96503.81;5065246;28;19924;-58
2022/01/31 03:20:19;;;;;;;;;;;;;;;2.61;54.73;96490.34;5063682;28;19924;-62
2022/01/31 03:22:46;;;;;;;;;;;;;;;2.62;54.27;96490.06;5064827;28;19924;-57
2022/01/31 03:25:13;;;;;;;;;;;;;;;2.49;55.32;96482.91;5064502;28;19924;-58
2022/01/31 03:27:40;;;;;;;;;;;;;;;2.18;57.52;96498.03;5065317;28;19931;-61
2022/01/31 03:30:08;;;;;;;;;;;;;;;2.07;57.00;96485.91;5065262;28;20375;-62
2022/01/31 03:32:34;;;;;;;;;;;;;;;2.17;57.31;96496.44;5063983;28;19931;-59
2022/01/31 03:35:01;;;;;;;;;;;;;;;2.20;57.43;96495.75;5064257;28;19924;-62
2022/01/31 03:37:28;;;;;;;;;;;;;;;2.28;56.66;96509.38;5063183;28;19924;-57
2022/01/31 03:39:54;;;;;;;;;;;;;;;2.29;57.01;96510.19;5064957;28;19924;-59
2022/01/31 03:42:21;;;;;;;;;;;;;;;2.16;56.74;96503.84;5064509;28;19925;-62
2022/01/31 03:44:48;;;;;;;;;;;;;;;2.21;56.74;96513.78;5065081;28;20314;-63
2022/01/31 03:47:15;;;;;;;;;;;;;;;2.28;57.60;96525.78;5064829;28;20338;-62
2022/01/31 03:49:42;;;;;;;;;;;;;;;2.26;57.13;96516.31;5064397;28;19946;-61
2022/01/31 03:52:08;;;;;;;;;;;;;;;2.27;57.14;96517.91;5063240;28;19954;-58
2022/01/31 03:54:35;;;;;;;;;;;;;;;2.17;57.62;96527.28;5063035;28;19966;-62
2022/01/31 03:57:02;;;;;;;;;;;;;;;2.26;57.67;96532.72;5064431;28;19946;-62
2022/01/31 03:59:28;;;;;;;;;;;;;;;2.16;57.19;96538.53;5064661;28;19930;-62
2022/01/31 04:01:55;;;;;;;;;;;;;;;2.28;58.22;96538.63;5065142;28;20433;-58
2022/01/31 04:04:22;;;;;;;;;;;;;;;2.22;58.06;96542.69;5064466;28;20017;-61
2022/01/31 04:06:48;;;;;;;;;;;;;;;2.19;58.69;96532.41;5064795;28;19924;-57
2022/01/31 04:09:15;;;;;;;;;;;;;;;2.34;57.20;96534.59;5064360;28;20405;-63
2022/01/31 04:11:43;;;;;;;;;;;;;;;2.27;57.56;96520.66;5064392;28;19931;-58
2022/01/31 04:14:09;;;;;;;;;;;;;;;2.33;57.21;96514.66;5062668;28;19928;-63
2022/01/31 04:16:36;;;;;;;;;;;;;;;2.45;55.67;96535.81;5064377;28;19925;-57
2022/01/31 04:19:03;;;;;;;;;;;;;;;2.60;55.50;96536.03;5064365;28;19932;-59
2022/01/31 04:21:29;;;;;;;;;;;;;;;2.53;56.46;96532.25;5063346;28;19924;-62
2022/01/31 04:23:56;;;;;;;;;;;;;;;2.47;56.02;96536.28;5064341;28;19924;-60
2022/01/31 04:26:22;;;;;;;;;;;;;;;2.50;55.64;96549.28;5064327;28;20259;-57
2022/01/31 04:29:03;;;;;;;;;;;;;;;2.23;56.93;96538.84;5063748;28;19924;-57
2022/01/31 04:31:44;;;;;;;;;;;;;;;2.27;57.71;96539.78;5062348;28;19924;-57
2022/01/31 04:34:11;;;;;;;;;;;;;;;2.13;57.81;96528.28;5061958;28;19924;-62
2022/01/31 04:36:38;;;;;;;;;;;;;;;2.00;57.98;96551.16;5063369;28;19924;-62
2022/01/31 04:39:04;;;;;;;;;;;;;;;2.05;57.92;96532.66;5064435;28;20084;-62
2022/01/31 04:41:31;;;;;;;;;;;;;;;1.76;61.48;96540.78;5064398;28;19924;-62
2022/01/31 04:44:03;;;;;;;;;;;;;;;1.73;60.66;96567.94;5063040;28;19932;-58
2022/01/31 04:46:30;;;;;;;;;;;;;;;1.56;61.70;96542.28;5064325;28;19925;-62
2022/01/31 04:48:57;;;;;;;;;;;;;;;1.39;62.08;96575.06;5064144;28;19956;-61
2022/01/31 04:51:23;;;;;;;;;;;;;;;1.40;61.60;96564.97;5063441;28;19948;-63
2022/01/31 04:53:50;;;;;;;;;;;;;;;1.43;61.33;96547.94;5063902;28;19947;-58
2022/01/31 04:56:17;;;;;;;;;;;;;;;1.44;62.04;96585.81;5063905;28;19998;-62
2022/01/31 04:58:43;;;;;;;;;;;;;;;1.43;61.78;96586.94;5064256;28;20462;-61
2022/01/31 05:01:10;;;;;;;;;;;;;;;1.42;61.69;96590.78;5064039;28;19940;-60
2022/01/31 05:03:37;;;;;;;;;;;;;;;1.39;62.67;96596.88;5063545;28;19928;-62
2022/01/31 05:06:04;;;;;;;;;;;;;;;1.36;61.80;96592.09;5062198;28;19947;-58
2022/01/31 05:08:30;;;;;;;;;;;;;;;1.17;64.26;96597.06;5063947;28;19963;-61
2022/01/31 05:10:57;;;;;;;;;;;;;;;1.08;64.83;96618.09;5063446;28;19928;-58
2022/01/31 05:13:24;;;;;;;;;;;;;;;1.18;64.63;96585.06;5063857;28;19935;-59
2022/01/31 05:15:53;;;;;;;;;;;;;;;1.09;64.75;96584.22;5063634;28;19935;-61
2022/01/31 05:18:20;;;;;;;;;;;;;;;1.13;64.92;96608.94;5063180;28;19998;-57
2022/01/31 05:20:47;;;;;;;;;;;;;;;1.12;65.21;96608.13;5063459;28;19951;-61
2022/01/31 05:23:13;;;;;;;;;;;;;;;1.17;65.10;96594.34;5063805;28;19930;-60
2022/01/31 05:25:40;;;;;;;;;;;;;;;1.12;64.56;96599.16;5063331;28;19931;-59
2022/01/31 05:28:07;;;;;;;;;;;;;;;1.25;63.73;96609.91;5062955;28;19939;-61
2022/01/31 05:30:33;;;;;;;;;;;;;;;1.36;63.12;96613.91;5063105;28;19930;-60
2022/01/31 05:33:00;;;;;;;;;;;;;;;1.21;63.11;96622.59;5063013;28;19924;-60
2022/01/31 05:35:26;;;;;;;;;;;;;;;1.20;63.08;96620.97;5063382;28;19931;-57
2022/01/31 05:37:53;;;;;;;;;;;;;;;1.29;63.49;96613.59;5063665;28;20379;-61
2022/01/31 05:40:19;;;;;;;;;;;;;;;1.58;60.20;96621.91;5063284;28;19938;-57
2022/01/31 05:42:46;;;;;;;;;;;;;;;1.95;57.69;96619.59;5061974;28;19930;-61
2022/01/31 05:45:12;;;;;;;;;;;;;;;2.39;56.34;96627.31;5063299;28;19924;-57
2022/01/31 05:47:39;;;;;;;;;;;;;;;2.71;55.74;96621.19;5066506;28;20010;-58
2022/01/31 05:50:06;;;;;;;;;;;;;;;3.03;54.45;96612.31;5065487;28;19924;-56
2022/01/31 05:52:33;;;;;;;;;;;;;;;3.13;54.94;96620.13;5069082;28;19924;-61
2022/01/31 05:55:00;;;;;;;;;;;;;;;3.31;54.01;96634.47;5073260;28;19925;-62
2022/01/31 05:57:27;;;;;;;;;;;;;;;3.50;53.34;96626.59;5087116;28;20428;-61
2022/01/31 05:59:53;;;;;;;;;;;;;;;3.59;53.10;96625.38;5087599;28;19931;-60
2022/01/31 06:02:20;;;;;;;;;;;;;;;3.64;53.45;96616.97;5087153;28;19954;-59
2022/01/31 06:04:47;;;;;;;;;;;;;;;3.74;52.70;96627.50;5086864;28;19935;-58
2022/01/31 06:07:13;;;;;;;;;;;;;;;3.91;52.18;96627.34;5086927;28;19930;-59
2022/01/31 06:09:40;;;;;;;;;;;;;;;4.07;51.30;96625.56;5086962;28;19931;-60
2022/01/31 06:12:07;;;;;;;;;;;;;;;4.15;51.20;96632.91;5079583;28;19943;-60
2022/01/31 06:14:34;;;;;;;;;;;;;;;4.22;51.20;96638.59;5065320;28;19924;-58
2022/01/31 06:17:01;;;;;;;;;;;;;;;4.30;50.86;96640.44;5066765;28;19963;-57
2022/01/31 06:19:29;;;;;;;;;;;;;;;4.36;50.64;96639.09;5066754;28;20393;-59
2022/01/31 06:21:56;;;;;;;;;;;;;;;4.42;50.56;96636.94;5066816;28;19928;-61
2022/01/31 06:24:22;;;;;;;;;;;;;;;4.46;50.04;96644.13;5066527;28;19925;-60
2022/01/31 06:26:49;;;;;;;;;;;;;;;4.51;49.42;96629.41;5066470;28;19934;-60
2022/01/31 06:29:16;;;;;;;;;;;;;;;4.64;48.52;96639.25;5066217;28;19924;-58
2022/01/31 06:31:42;;;;;;;;;;;;;;;4.85;47.74;96650.13;5066792;28;19932;-58
2022/01/31 06:34:09;;;;;;;;;;;;;;;4.89;48.11;96640.03;5066903;28;20506;-58
2022/01/31 06:36:35;;;;;;;;;;;;;;;2.12;47.97;96215.31;5066095;28;19924;-61
2022/01/31 06:39:02;;;;;;;;;;;;;;;4.88;48.04;96643.94;5068679;28;19938;-61
2022/01/31 06:41:29;;;;;;;;;;;;;;;4.92;47.77;96645.66;5077260;28;19935;-57
2022/01/31 06:43:56;;;;;;;;;;;;;;;4.99;47.62;96639.59;5070340;28;20019;-59
2022/01/31 06:46:23;;;;;;;;;;;;;;;4.87;47.46;96650.56;5074620;28;19931;-57
2022/01/31 06:48:50;;;;;;;;;;;;;;;4.86;47.89;96644.28;5076548;28;19925;-58
2022/01/31 06:51:17;;;;;;;;;;;;;;;4.98;47.81;96633.28;5072806;28;19924;-60
2022/01/31 06:53:48;;;;;;;;;;;;;;;5.08;46.98;96648.50;5064378;28;19970;-61
2022/01/31 06:56:16;;;;;;;;;;;;;;;5.19;46.10;96649.63;5066089;28;20047;-56
2022/01/31 06:58:42;;;;;;;;;;;;;;;5.33;46.37;96645.38;5064668;28;19924;-58
2022/01/31 07:01:09;;;;;;;;;;;;;;;5.36;45.71;96630.16;5067998;28;19924;-58
2022/01/31 07:03:36;;;;;;;;;;;;;;;5.44;45.65;96624.53;5064888;28;19924;-60
2022/01/31 07:06:03;;;;;;;;;;;;;;;5.35;45.01;96625.81;5082612;28;20319;-62
2022/01/31 07:08:30;;;;;;;;;;;;;;;5.35;44.85;96625.81;5066686;28;20326;-62
2022/01/31 07:10:56;;;;;;;;;;;;;;;5.32;45.62;96630.06;5065471;28;19928;-55
2022/01/31 07:13:47;;;;;;;;;;;;;;;5.38;45.41;96631.41;5068785;28;19935;-61
2022/01/31 07:16:10;;;;;;;;;;;;;;;5.45;45.07;96625.31;5068937;28;19927;-61
2022/01/31 07:18:37;;;;;;;;;;;;;;;5.51;44.67;96618.44;5075858;28;19924;-59
2022/01/31 07:21:05;;;;;;;;;;;;;;;5.28;44.06;96556.97;5079063;28;19924;-57
2022/01/31 07:24:19;;;;;;;;;;;;;;;5.65;44.01;96616.09;5073296;28;20018;-60
2022/01/31 07:26:24;;;;;;;;;;;;;;;5.71;44.23;96600.97;5069978;28;19924;-61
2022/01/31 07:28:51;;;;;;;;;;;;;;;5.72;43.80;96592.38;5072564;28;19924;-58
2022/01/31 07:31:17;;;;;;;;;;;;;;;5.73;44.19;96598.66;5077981;28;19935;-61
2022/01/31 07:33:44;;;;;;;;;;;;;;;5.71;43.64;96598.22;5072196;28;20314;-62
2022/01/31 07:36:10;;;;;;;;;;;;;;;5.81;43.97;96590.28;5082128;28;19924;-58
2022/01/31 07:38:37;;;;;;;;;;;;;;;5.91;43.36;96600.00;5084732;28;20304;-61
2022/01/31 07:41:04;;;;;;;;;;;;;;;5.97;43.05;96584.84;5083153;28;19931;-57
2022/01/31 07:43:32;;;;;;;;;;;;;;;6.07;42.84;96582.38;5070320;28;19924;-62
2022/01/31 07:45:59;;;;;;;;;;;;;;;6.14;42.67;96598.25;5078897;28;20470;-56
2022/01/31 07:48:29;;;;;;;;;;;;;;;6.19;42.05;96589.75;5075744;28;19924;-61
2022/01/31 07:50:55;;;;;;;;;;;;;;;6.08;42.43;96591.44;5075528;28;20757;-63
2022/01/31 07:53:22;;;;;;;;;;;;;;;6.00;42.82;96592.38;5073243;28;20010;-58
2022/01/31 07:55:49;;;;;;;;;;;;;;;6.15;42.38;96600.66;5071741;28;20007;-63
2022/01/31 07:58:17;;;;;;;;;;;;;;;6.25;42.35;96582.03;5073219;28;20307;-59
2022/01/31 08:00:44;;;;;;;;;;;;;;;6.39;42.32;96596.16;5072383;28;19929;-55
2022/01/31 08:03:11;;;;;;;;;;;;;;;6.35;41.53;96576.81;5071231;28;19967;-57
2022/01/31 08:05:38;;;;;;;;;;;;;;;6.36;42.08;96578.41;5071863;28;19970;-63
2022/01/31 08:08:05;;;;;;;;;;;;;;;6.38;41.52;96581.63;5069879;28;20374;-61
2022/01/31 08:10:34;;;;;;;;;;;;;;;6.45;41.01;96584.53;5073115;28;20313;-60
2022/01/31 08:13:02;;;;;;;;;;;;;;;6.56;41.67;96571.84;5075302;28;19973;-58
2022/01/31 08:15:29;;;;;;;;;;;;;;;6.55;40.68;96586.75;5070722;28;19935;-57
2022/01/31 08:17:56;;;;;;;;;;;;;;;6.58;40.63;96579.72;5068008;28;19928;-60
2022/01/31 08:20:23;;;;;;;;;;;;;;;6.53;40.41;96596.53;5067604;28;20688;-59
2022/01/31 08:22:50;;;;;;;;;;;;;;;6.68;41.18;96591.03;5075312;28;19931;-54
2022/01/31 08:25:16;;;;;;;;;;;;;;;6.79;40.90;96592.06;5078886;28;19930;-58
2022/01/31 08:27:49;;;;;;;;;;;;;;;6.93;41.51;96581.41;5069189;28;19924;-58
2022/01/31 08:30:22;;;;;;;;;;;;;;;7.06;42.02;96593.09;5074080;28;20399;-59
2022/01/31 08:32:59;;;;;;;;;;;;;;;7.15;41.76;96577.97;5077618;28;20449;-56
2022/01/31 08:38:11;;;;;;;;;;;;;;;7.31;41.65;96581.47;5070658;28;20038;-54
2022/01/31 08:40:38;;;;;;;;;;;;;;;7.27;42.49;96575.06;5069436;28;20610;-63
2022/01/31 08:43:05;;;;;;;;;;;;;;;7.41;40.94;96577.34;5068657;28;19924;-60
2022/01/31 08:45:33;;;;;;;;;;;;;;;7.55;40.51;96583.97;5074898;28;20357;-58
2022/01/31 08:48:00;;;;;;;;;;;;;;;7.43;39.99;96584.09;5069644;28;19924;-63
2022/01/31 08:50:27;;;;;;;;;;;;;;;7.60;40.26;96594.69;5063661;28;20322;-56
2022/01/31 08:52:54;;;;;;;;;;;;;;;7.69;40.03;96581.50;5065999;28;19986;-55
2022/01/31 08:55:21;;;;;;;;;;;;;;;7.79;39.16;96584.84;5069844;28;19924;-62
2022/01/31 08:57:52;;;;;;;;;;;;;;;7.77;37.31;96578.88;5068867;28;20359;-58
2022/01/31 09:00:19;;;;;;;;;;;;;;;7.80;37.99;96583.66;5057565;28;20321;-59
2022/01/31 09:03:01;;;;;;;;;;;;;;;7.78;37.24;96594.28;5081542;28;19924;-61
2022/01/31 09:05:29;;;;;;;;;;;;;;;7.88;36.54;96582.66;5066571;28;19928;-61
2022/01/31 09:07:56;;;;;;;;;;;;;;;8.00;37.14;96579.75;5064557;28;19924;-60
2022/01/31 09:10:22;;;;;;;;;;;;;;;8.11;38.00;96580.75;5072124;28;20335;-62
2022/01/31 09:12:49;;;;;;;;;;;;;;;8.25;37.96;96572.75;5071802;28;20043;-60
2022/01/31 09:15:16;;;;;;;;;;;;;;;8.18;36.42;96575.34;5067653;28;19928;-61
2022/01/31 09:17:42;;;;;;;;;;;;;;;8.00;37.27;96563.97;5077231;28;19924;-62
2022/01/31 09:20:10;;;;;;;;;;;;;;;5.55;36.99;96168.88;5070335;28;19931;-58
2022/01/31 09:22:37;;;;;;;;;;;;;;;8.21;38.33;96569.09;5076305;28;19924;-58
2022/01/31 09:25:04;;;;;;;;;;;;;;;8.18;38.68;96564.31;5080341;28;19993;-57
2022/01/31 09:27:31;;;;;;;;;;;;;;;8.17;39.05;96568.25;5075391;28;19924;-59
2022/01/31 09:29:59;;;;;;;;;;;;;;;8.18;39.15;96558.78;5075031;28;20003;-58
2022/01/31 09:32:26;;;;;;;;;;;;;;;8.25;38.78;96565.25;5074697;28;19923;-61
2022/01/31 09:34:52;;;;;;;;;;;;;;;8.36;39.56;96571.00;5072988;28;20426;-58
2022/01/31 09:37:21;;;;;;;;;;;;;;;8.49;39.75;96558.56;5079140;28;20406;-59
2022/01/31 09:39:50;;;;;;;;;;;;;;;8.39;39.33;96551.75;5071123;28;19931;-59
2022/01/31 09:42:33;;;;;;;;;;;;;;;8.53;39.39;96553.94;5080270;28;19923;-62
2022/01/31 09:48:32;;;;;;;;;;;;;;;8.57;39.59;96532.69;5074218;28;19931;-57
2022/01/31 09:50:20;;;;;;;;;;;;;;;8.58;39.24;96510.25;5075019;28;19924;-58
2022/01/31 09:52:47;;;;;;;;;;;;;;;8.76;39.33;96510.53;5073389;28;19942;-57
2022/01/31 09:55:14;;;;;;;;;;;;;;;8.92;37.25;96497.34;5075928;28;20018;-59
2022/01/31 09:57:41;;;;;;;;;;;;;;;9.00;36.52;96501.81;5082657;28;19923;-58
2022/01/31 10:00:08;;;;;;;;;;;;;;;8.99;35.86;96497.47;5073847;28;19939;-58
2022/01/31 10:02:35;;;;;;;;;;;;;;;8.97;36.79;96488.75;5078711;28;19924;-59
2022/01/31 10:05:02;;;;;;;;;;;;;;;9.04;34.57;96486.09;5080006;28;20106;-62
2022/01/31 10:07:45;;;;;;;;;;;;;;;8.88;35.46;96477.19;5086874;28;20450;-61
2022/01/31 10:10:21;;;;;;;;;;;;;;;8.96;35.92;96484.41;5085187;28;19924;-59
2022/01/31 10:18:08;;;;;;;;;;;;;;;9.34;33.67;96462.03;5087016;28;20052;-60
2022/01/31 10:20:58;;;;;;;;;;;;;;;9.27;32.49;96522.72;5085958;28;20494;-61
2022/01/31 10:23:25;;;;;;;;;;;;;;;9.46;32.31;96469.25;5085012;28;19963;-62
2022/01/31 10:25:51;;;;;;;;;;;;;;;9.22;34.49;96453.94;5086307;28;20255;-61
2022/01/31 10:28:19;;;;;;;;;;;;;;;9.27;34.24;96461.91;5084710;28;19924;-61
2022/01/31 10:30:47;;;;;;;;;;;;;;;9.30;34.31;96457.59;5086291;28;20381;-62
2022/01/31 10:33:14;;;;;;;;;;;;;;;9.35;32.54;96463.59;5079958;28;20003;-64
2022/01/31 10:35:42;;;;;;;;;;;;;;;9.40;33.06;96443.91;5065577;28;19931;-61
2022/01/31 10:38:16;;;;;;;;;;;;;;;9.49;32.63;96441.66;5066223;28;20417;-62
2022/01/31 10:52:25;;;;;;;;;;;;;;;9.54;32.39;96421.97;5065156;28;20023;-60
2022/01/31 10:54:53;;;;;;;;;;;;;;;9.29;33.06;96409.03;5065592;28;20285;-63
2022/01/31 10:57:22;;;;;;;;;;;;;;;9.29;34.34;96411.78;5065372;28;19929;-61
2022/01/31 10:59:49;;;;;;;;;;;;;;;9.43;33.16;96415.53;5065812;28;19932;-62
2022/01/31 11:02:24;;;;;;;;;;;;;;;9.51;32.66;96405.31;5065536;28;20395;-59
2022/01/31 11:04:51;;;;;;;;;;;;;;;9.83;33.70;96398.94;5065576;28;20379;-61
2022/01/31 11:07:19;;;;;;;;;;;;;;;9.98;32.85;96386.84;5065187;28;19924;-62
2022/01/31 11:09:49;;;;;;;;;;;;;;;10.03;32.78;96372.66;5065081;28;20422;-62
2022/01/31 11:12:16;;;;;;;;;;;;;;;10.14;31.88;96368.03;5065029;28;19968;-63
2022/01/31 11:14:45;;;;;;;;;;;;;;;10.16;32.03;96365.66;5065129;28;20028;-61
2022/01/31 11:17:14;;;;;;;;;;;;;;;10.22;32.81;96357.78;5063556;28;20399;-60
2022/01/31 11:19:55;;;;;;;;;;;;;;;10.38;32.38;96353.56;5065873;28;19949;-61
2022/01/31 11:22:28;;;;;;;;;;;;;;;10.40;31.37;96348.44;5065179;28;19924;-61
2022/01/31 11:25:13;;;;;;;;;;;;;;;10.32;31.96;96352.31;5064912;28;19977;-61
2022/01/31 11:27:44;;;;;;;;;;;;;;;10.50;32.49;96347.72;5064588;28;19924;-63
2022/01/31 11:30:11;;;;;;;;;;;;;;;10.52;31.76;96345.34;5064929;28;19988;-63
2022/01/31 11:32:38;;;;;;;;;;;;;;;10.47;32.24;96348.47;5064857;28;19943;-64
2022/01/31 11:35:05;;;;;;;;;;;;;;;10.35;30.73;96351.56;5064887;28;20196;-61
2022/01/31 11:37:32;;;;;;;;;;;;;;;10.17;30.90;96353.41;5064720;28;19924;-63
2022/01/31 11:40:01;;;;;;;;;;;;;;;9.92;31.58;96348.84;5064535;28;19925;-61
2022/01/31 11:42:28;;;;;;;;;;;;;;;9.96;32.36;96350.44;5064460;28;19924;-61
2022/01/31 11:45:04;;;;;;;;;;;;;;;9.77;32.72;96353.44;5064765;28;19925;-62
2022/01/31 11:47:31;;;;;;;;;;;;;;;9.58;32.87;96339.84;5064716;28;19928;-60
2022/01/31 11:49:59;;;;;;;;;;;;;;;9.52;32.93;96346.09;5064338;28;19968;-61
2022/01/31 11:52:30;;;;;;;;;;;;;;;9.58;32.30;96333.53;5062902;28;19935;-62
2022/01/31 11:54:58;;;;;;;;;;;;;;;9.61;32.97;96325.25;5064425;28;20007;-63
2022/01/31 11:57:26;;;;;;;;;;;;;;;9.56;32.59;96322.06;5064039;28;19935;-62
2022/01/31 11:59:57;;;;;;;;;;;;;;;9.59;32.30;96318.53;5064225;28;19962;-60
2022/01/31 12:02:25;;;;;;;;;;;;;;;9.52;31.63;96318.44;5063852;28;19930;-64
2022/01/31 12:04:52;;;;;;;;;;;;;;;9.35;32.96;96313.56;5064947;28;19920;-62
2022/01/31 12:07:39;;;;;;;;;;;;;;;9.48;32.80;96296.31;5062616;28;19932;-64
2022/01/31 12:10:07;;;;;;;;;;;;;;;9.44;32.64;96295.47;5062623;28;19925;-63
2022/01/31 12:12:48;;;;;;;;;;;;;;;9.26;31.76;96293.72;5064179;28;19935;-61
2022/01/31 12:15:43;;;;;;;;;;;;;;;9.26;31.71;96283.47;5067912;28;19924;-60
2022/01/31 12:23:52;;;;;;;;;;;;;;;9.22;32.70;96271.59;5071933;28;19927;-64
2022/01/31 12:26:49;;;;;;;;;;;;;;;9.40;32.17;96272.56;5077359;28;20027;-64
2022/01/31 12:29:29;;;;;;;;;;;;;;;9.40;32.45;96255.97;5066130;28;19924;-60
2022/01/31 12:32:15;;;;;;;;;;;;;;;9.41;32.40;96268.59;5076461;28;19935;-67
2022/01/31 12:34:50;;;;;;;;;;;;;;;9.41;31.99;96262.28;5075300;28;19924;-57
2022/01/31 12:37:38;;;;;;;;;;;;;;;9.41;31.71;96256.75;5073453;28;19924;-62
2022/01/31 12:40:14;;;;;;;;;;;;;;;9.43;31.45;96260.75;5088201;28;19927;-56
2022/01/31 12:45:16;;;;;;;;;;;;;;;9.48;30.58;96268.69;5077729;28;19930;-61
2022/01/31 12:48:15;;;;;;;;;;;;;;;9.43;31.13;96271.00;5072793;28;19982;-57
2022/01/31 12:50:42;;;;;;;;;;;;;;;9.49;30.84;96273.03;5062512;28;19924;-58
2022/01/31 12:53:22;;;;;;;;;;;;;;;9.37;30.37;96281.63;5078904;28;19923;-62
2022/01/31 12:56:09;;;;;;;;;;;;;;;9.33;30.91;96266.94;5077736;28;19982;-59
2022/01/31 12:58:36;;;;;;;;;;;;;;;9.45;32.00;96263.91;5076102;28;20391;-60
2022/01/31 13:01:13;;;;;;;;;;;;;;;9.40;31.85;96255.16;5068711;28;19951;-60
2022/01/31 13:03:41;;;;;;;;;;;;;;;9.47;32.07;96242.19;5066732;28;19928;-58
2022/01/31 13:06:31;;;;;;;;;;;;;;;9.57;32.29;96241.50;5071543;28;19923;-59
2022/01/31 13:09:00;;;;;;;;;;;;;;;9.45;31.18;96244.56;5079383;28;20061;-61
2022/01/31 13:11:28;;;;;;;;;;;;;;;9.37;30.95;96239.34;5079758;28;19931;-58
2022/01/31 13:14:23;;;;;;;;;;;;;;;9.45;31.17;96236.28;5069803;28;19931;-61
2022/01/31 13:17:10;;;;;;;;;;;;;;;9.63;31.81;96231.66;5065840;28;19924;-58
2022/01/31 13:19:40;;;;;;;;;;;;;;;9.72;30.77;96237.66;5067355;28;19927;-64
2022/01/31 13:22:09;;;;;;;;;;;;;;;9.74;30.09;96237.25;5066759;28;19958;-61
2022/01/31 13:24:37;;;;;;;;;;;;;;;9.66;30.40;96235.66;5071055;28;20322;-58
2022/01/31 13:27:05;;;;;;;;;;;;;;;9.51;30.33;96245.81;5077200;28;19931;-59
2022/01/31 13:29:52;;;;;;;;;;;;;;;9.24;29.78;96236.09;5069818;28;19935;-59
2022/01/31 13:32:30;;;;;;;;;;;;;;;9.22;31.40;96238.44;5073791;28;20022;-60
2022/01/31 13:35:06;;;;;;;;;;;;;;;9.12;31.50;96231.63;5070839;28;19928;-62
2022/01/31 13:37:43;;;;;;;;;;;;;;;9.08;31.97;96227.25;5070079;28;19924;-64